createdAt,value
2022-12-25T00:01:21.662Z,11.19
2022-12-25T00:03:54.760Z,11.22
2022-12-25T00:06:27.847Z,11.19
2022-12-25T00:09:02.150Z,11.15
2022-12-25T00:11:35.500Z,11.23
2022-12-25T00:14:08.631Z,11.18
2022-12-25T00:16:41.407Z,11.28
2022-12-25T00:19:14.228Z,11.28
2022-12-25T00:21:47.172Z,11.30
2022-12-25T00:24:21.435Z,11.29
2022-12-25T00:26:54.350Z,11.64
2022-12-25T00:29:28.207Z,11.37
2022-12-25T00:32:01.098Z,11.33
2022-12-25T00:34:34.275Z,11.37
2022-12-25T00:37:07.095Z,11.37
2022-12-25T00:39:41.453Z,11.35
2022-12-25T00:42:20.763Z,11.39
2022-12-25T00:44:53.746Z,11.36
2022-12-25T00:47:26.652Z,11.36
2022-12-25T00:49:59.552Z,11.37
2022-12-25T00:52:32.521Z,11.41
2022-12-25T00:55:07.159Z,11.33
2022-12-25T00:57:40.258Z,11.37
2022-12-25T01:00:15.068Z,11.45
2022-12-25T01:02:48.098Z,11.45
2022-12-25T01:05:21.256Z,11.45
2022-12-25T01:07:54.482Z,11.32
2022-12-25T01:10:27.759Z,11.41
2022-12-25T01:13:00.522Z,11.40
2022-12-25T01:15:33.331Z,11.38
2022-12-25T01:18:08.050Z,11.39
2022-12-25T01:20:42.040Z,11.43
2022-12-25T01:23:15.011Z,11.38
2022-12-25T01:25:48.976Z,11.32
2022-12-25T01:28:21.868Z,11.35
2022-12-25T01:30:54.552Z,11.36
2022-12-25T01:33:27.679Z,11.38
2022-12-25T01:36:00.649Z,11.45
2022-12-25T01:38:33.348Z,11.42
2022-12-25T01:41:07.738Z,11.46
2022-12-25T01:44:00.825Z,11.48
2022-12-25T01:46:35.724Z,11.47
2022-12-25T01:49:12.903Z,11.46
2022-12-25T01:51:48.584Z,11.49
2022-12-25T01:54:26.230Z,11.50
2022-12-25T01:57:03.236Z,11.50
2022-12-25T01:59:36.501Z,11.53
2022-12-25T02:02:09.598Z,11.50
2022-12-25T02:04:47.902Z,11.51
2022-12-25T02:07:24.289Z,11.68
2022-12-25T02:09:57.115Z,11.52
2022-12-25T02:12:34.956Z,11.56
2022-12-25T02:15:12.272Z,11.56
2022-12-25T02:17:54.190Z,11.56
2022-12-25T02:20:52.618Z,11.58
2022-12-25T02:24:01.823Z,11.57
2022-12-25T02:26:53.610Z,11.58
2022-12-25T02:29:34.109Z,11.57
2022-12-25T02:32:16.253Z,11.54
2022-12-25T02:34:53.911Z,11.57
2022-12-25T02:37:31.814Z,11.65
2022-12-25T02:40:11.941Z,11.67
2022-12-25T02:43:09.564Z,11.64
2022-12-25T02:46:06.615Z,11.63
2022-12-25T02:49:00.806Z,11.67
2022-12-25T02:51:56.766Z,11.63
2022-12-25T02:54:52.360Z,11.63
2022-12-25T02:57:48.080Z,11.66
2022-12-25T03:00:38.783Z,11.68
2022-12-25T03:03:32.359Z,11.65
2022-12-25T03:06:24.992Z,11.54
2022-12-25T03:09:21.281Z,11.66
2022-12-25T03:12:02.348Z,11.63
2022-12-25T03:14:52.870Z,11.66
2022-12-25T03:17:26.288Z,11.65
2022-12-25T03:20:18.414Z,11.74
2022-12-25T03:23:09.053Z,11.73
2022-12-25T03:25:59.976Z,11.72
2022-12-25T03:28:33.065Z,11.67
2022-12-25T03:31:17.132Z,11.67
2022-12-25T03:34:23.445Z,11.73
2022-12-25T03:37:22.696Z,11.60
2022-12-25T03:40:22.274Z,11.59
2022-12-25T03:43:17.105Z,11.56
2022-12-25T03:46:15.807Z,11.68
2022-12-25T03:49:11.813Z,11.57
2022-12-25T03:52:07.093Z,11.54
2022-12-25T03:55:01.382Z,11.57
2022-12-25T03:57:52.998Z,11.55
2022-12-25T04:00:43.518Z,11.56
2022-12-25T04:03:45.592Z,11.53
2022-12-25T04:06:36.141Z,11.47
2022-12-25T04:09:26.378Z,11.53
2022-12-25T04:12:18.433Z,11.48
2022-12-25T04:15:08.920Z,11.61
2022-12-25T04:17:59.387Z,11.62
2022-12-25T04:20:50.130Z,11.58
2022-12-25T04:23:40.677Z,11.48
2022-12-25T04:26:31.869Z,11.53
2022-12-25T04:29:23.853Z,11.54
2022-12-25T04:32:14.318Z,11.47
2022-12-25T04:35:04.498Z,11.50
2022-12-25T04:37:37.568Z,11.53
2022-12-25T04:40:11.368Z,11.66
2022-12-25T04:42:44.197Z,11.56
2022-12-25T04:45:18.626Z,11.51
2022-12-25T04:47:51.508Z,11.61
2022-12-25T04:50:24.441Z,11.61
2022-12-25T04:52:57.891Z,11.77
2022-12-25T04:55:30.981Z,11.77
2022-12-25T04:58:03.915Z,11.76
2022-12-25T05:00:38.300Z,11.75
2022-12-25T05:03:11.376Z,11.76
2022-12-25T05:05:44.398Z,11.61
2022-12-25T05:08:17.170Z,11.61
2022-12-25T05:10:50.188Z,11.57
2022-12-25T05:13:23.563Z,11.35
2022-12-25T05:15:57.977Z,11.50
2022-12-25T05:18:33.027Z,11.46
2022-12-25T05:21:06.465Z,11.53
2022-12-25T05:23:48.719Z,11.44
2022-12-25T05:26:23.675Z,11.44
2022-12-25T05:28:56.853Z,11.43
2022-12-25T05:31:32.428Z,11.54
2022-12-25T05:34:05.370Z,11.58
2022-12-25T05:36:38.226Z,11.48
2022-12-25T05:39:11.077Z,11.48
2022-12-25T05:41:44.656Z,11.46
2022-12-25T05:44:18.034Z,11.53
2022-12-25T05:46:52.870Z,11.53
2022-12-25T05:49:26.115Z,11.57
2022-12-25T05:51:59.352Z,11.48
2022-12-25T05:54:33.363Z,11.53
2022-12-25T05:57:06.280Z,11.57
2022-12-25T05:59:39.275Z,11.53
2022-12-25T06:02:13.402Z,11.57
2022-12-25T06:04:46.286Z,11.50
2022-12-25T06:07:19.245Z,11.53
2022-12-25T06:09:52.049Z,11.49
2022-12-25T06:12:25.042Z,11.51
2022-12-25T06:14:58.123Z,11.54
2022-12-25T06:17:32.352Z,11.58
2022-12-25T06:20:06.041Z,11.63
2022-12-25T06:22:39.079Z,11.64
2022-12-25T06:25:12.161Z,11.62
2022-12-25T06:27:45.215Z,11.58
2022-12-25T06:30:18.307Z,11.59
2022-12-25T06:32:52.499Z,11.51
2022-12-25T06:35:25.582Z,11.54
2022-12-25T06:37:58.196Z,11.54
2022-12-25T06:40:31.113Z,11.39
2022-12-25T06:43:03.914Z,11.47
2022-12-25T06:45:37.201Z,11.52
2022-12-25T06:48:11.596Z,11.62
2022-12-25T06:50:45.037Z,11.53
2022-12-25T06:53:17.936Z,11.56
2022-12-25T06:55:50.854Z,11.57
2022-12-25T06:58:23.777Z,11.52
2022-12-25T07:00:58.179Z,11.57
2022-12-25T07:03:32.575Z,11.66
2022-12-25T07:06:07.694Z,11.63
2022-12-25T07:08:40.675Z,11.65
2022-12-25T07:11:13.555Z,11.56
2022-12-25T07:13:46.660Z,11.63
2022-12-25T07:16:20.231Z,11.61
2022-12-25T07:18:54.480Z,11.66
2022-12-25T07:21:27.334Z,11.70
2022-12-25T07:24:00.142Z,11.62
2022-12-25T07:26:32.899Z,11.65
2022-12-25T07:29:05.931Z,11.63
2022-12-25T07:31:39.079Z,11.59
2022-12-25T07:34:13.364Z,11.62
2022-12-25T07:36:47.098Z,11.66
2022-12-25T07:39:20.311Z,11.70
2022-12-25T07:41:53.382Z,11.69
2022-12-25T07:44:26.434Z,11.71
2022-12-25T07:46:59.512Z,11.68
2022-12-25T07:49:33.423Z,11.67
2022-12-25T07:52:06.788Z,11.77
2022-12-25T07:54:39.576Z,11.80
2022-12-25T07:57:12.526Z,11.78
2022-12-25T07:59:45.667Z,11.76
2022-12-25T08:02:19.178Z,11.77
2022-12-25T08:04:53.924Z,11.77
2022-12-25T08:07:27.590Z,11.80
2022-12-25T08:10:00.442Z,11.77
2022-12-25T08:12:33.207Z,11.77
2022-12-25T08:15:06.960Z,11.68
2022-12-25T08:17:39.735Z,11.68
2022-12-25T08:20:14.610Z,11.63
2022-12-25T08:22:47.638Z,11.64
2022-12-25T08:25:20.275Z,11.64
2022-12-25T08:27:53.087Z,11.61
2022-12-25T08:30:26.032Z,11.66
2022-12-25T08:32:58.885Z,11.63
2022-12-25T08:35:34.503Z,11.52
2022-12-25T08:38:07.250Z,11.50
2022-12-25T08:40:40.072Z,11.48
2022-12-25T08:43:13.019Z,11.46
2022-12-25T08:45:47.887Z,11.46
2022-12-25T08:48:20.737Z,11.47
2022-12-25T08:50:55.116Z,11.48
2022-12-25T08:53:28.237Z,11.48
2022-12-25T08:56:04.285Z,11.42
2022-12-25T08:58:38.076Z,11.47
2022-12-25T09:01:11.594Z,12.00
2022-12-25T09:03:44.632Z,11.89
2022-12-25T09:06:18.593Z,11.84
2022-12-25T09:08:52.760Z,11.81
2022-12-25T09:11:28.353Z,11.75
2022-12-25T09:14:01.650Z,11.77
2022-12-25T09:16:34.375Z,11.81
2022-12-25T09:19:07.275Z,11.78
2022-12-25T09:21:41.384Z,11.81
2022-12-25T09:24:14.911Z,11.78
2022-12-25T09:26:47.801Z,11.81
2022-12-25T09:29:20.504Z,11.78
2022-12-25T09:31:53.443Z,11.76
2022-12-25T09:34:26.353Z,11.75
2022-12-25T09:37:00.448Z,11.75
2022-12-25T09:39:33.462Z,11.79
2022-12-25T09:42:13.589Z,11.76
2022-12-25T09:44:52.111Z,11.78
2022-12-25T09:47:27.871Z,11.76
2022-12-25T09:50:06.620Z,11.73
2022-12-25T09:52:46.011Z,11.70
2022-12-25T09:55:21.443Z,11.69
2022-12-25T09:57:57.724Z,11.68
2022-12-25T10:00:37.324Z,11.73
2022-12-25T10:03:36.223Z,11.73
2022-12-25T10:06:14.676Z,11.75
2022-12-25T10:09:06.133Z,11.78
2022-12-25T10:11:52.828Z,11.76
2022-12-25T10:14:35.381Z,11.74
2022-12-25T10:17:27.530Z,11.76
2022-12-25T10:20:06.518Z,11.73
2022-12-25T10:22:43.699Z,11.76
2022-12-25T10:25:20.752Z,11.77
2022-12-25T10:27:58.146Z,11.79
2022-12-25T10:30:32.340Z,11.81
2022-12-25T10:33:05.261Z,11.81
2022-12-25T10:35:39.056Z,11.79
2022-12-25T10:38:15.795Z,11.81
2022-12-25T10:41:05.988Z,11.82
2022-12-25T10:43:44.589Z,11.80
2022-12-25T10:46:18.479Z,11.81
2022-12-25T10:48:53.898Z,11.84
2022-12-25T10:51:30.564Z,11.85
2022-12-25T10:54:05.594Z,11.91
2022-12-25T10:56:39.705Z,11.94
2022-12-25T10:59:12.583Z,11.96
2022-12-25T11:01:45.489Z,11.96
2022-12-25T11:04:20.195Z,11.95
2022-12-25T11:07:07.339Z,12.00
2022-12-25T11:09:40.835Z,11.98
2022-12-25T11:12:18.806Z,12.01
2022-12-25T11:14:57.225Z,12.04
2022-12-25T11:17:30.041Z,12.06
2022-12-25T11:20:03.516Z,12.13
2022-12-25T11:22:38.458Z,12.18
2022-12-25T11:25:15.268Z,12.20
2022-12-25T11:27:58.326Z,12.16
2022-12-25T11:30:33.687Z,12.16
2022-12-25T11:33:12.165Z,12.17
2022-12-25T11:35:52.859Z,12.04
2022-12-25T11:38:28.258Z,12.08
2022-12-25T11:41:05.695Z,12.16
2022-12-25T11:43:45.877Z,12.14
2022-12-25T11:46:22.786Z,12.12
2022-12-25T11:49:00.428Z,12.07
2022-12-25T11:51:37.108Z,12.05
2022-12-25T11:54:20.848Z,12.04
2022-12-25T11:56:54.531Z,12.05
2022-12-25T11:59:33.955Z,12.05
2022-12-25T12:02:23.016Z,12.04
2022-12-25T12:05:09.233Z,12.07
2022-12-25T12:07:52.868Z,12.12
2022-12-25T12:10:33.894Z,12.15
2022-12-25T12:13:27.098Z,12.14
2022-12-25T12:16:01.507Z,12.17
2022-12-25T12:18:35.705Z,12.16
2022-12-25T12:21:20.719Z,12.14
2022-12-25T12:23:58.529Z,12.15
2022-12-25T12:26:36.951Z,12.12
2022-12-25T12:29:24.656Z,12.19
2022-12-25T12:32:04.725Z,12.14
2022-12-25T12:34:43.785Z,12.14
2022-12-25T12:37:24.764Z,12.14
2022-12-25T12:39:59.106Z,12.12
2022-12-25T12:42:40.476Z,12.17
2022-12-25T12:45:22.569Z,12.11
2022-12-25T12:47:57.496Z,12.11
2022-12-25T12:50:35.184Z,12.05
2022-12-25T12:53:31.415Z,12.04
2022-12-25T12:56:13.512Z,12.13
2022-12-25T12:58:50.935Z,12.10
2022-12-25T13:01:44.810Z,12.08
2022-12-25T13:04:54.885Z,12.32
2022-12-25T13:07:55.392Z,12.13
2022-12-25T13:10:33.611Z,12.09
2022-12-25T13:13:16.993Z,12.19
2022-12-25T13:15:53.727Z,12.10
2022-12-25T13:18:28.404Z,12.11
2022-12-25T13:21:08.194Z,12.11
2022-12-25T13:23:43.115Z,12.10
2022-12-25T13:26:21.155Z,12.11
2022-12-25T13:28:56.214Z,12.04
2022-12-25T13:31:34.043Z,12.05
2022-12-25T13:34:18.429Z,12.06
2022-12-25T13:36:52.945Z,12.07
2022-12-25T13:39:31.872Z,12.08
2022-12-25T13:42:10.704Z,12.13
2022-12-25T13:44:49.448Z,12.08
2022-12-25T13:47:34.667Z,12.04
2022-12-25T13:50:21.419Z,12.02
2022-12-25T13:52:56.250Z,12.03
2022-12-25T13:55:31.150Z,12.04
2022-12-25T13:58:06.669Z,12.03
2022-12-25T14:00:47.732Z,12.09
2022-12-25T14:03:24.914Z,12.06
2022-12-25T14:06:03.775Z,12.02
2022-12-25T14:08:37.674Z,12.05
2022-12-25T14:11:15.510Z,12.02
2022-12-25T14:13:52.122Z,12.03
2022-12-25T14:16:27.238Z,12.09
2022-12-25T14:19:01.915Z,12.05
2022-12-25T14:21:39.192Z,12.04
2022-12-25T14:24:14.619Z,12.06
2022-12-25T14:26:49.125Z,12.13
2022-12-25T14:29:28.042Z,12.08
2022-12-25T14:32:05.635Z,12.03
2022-12-25T14:34:38.955Z,12.01
2022-12-25T14:37:19.157Z,12.01
2022-12-25T14:40:00.740Z,12.01
2022-12-25T14:42:36.364Z,12.00
2022-12-25T14:45:28.204Z,11.96
2022-12-25T14:48:04.442Z,11.98
2022-12-25T14:50:42.951Z,11.95
2022-12-25T14:53:24.298Z,11.96
2022-12-25T14:56:00.625Z,11.96
2022-12-25T14:58:41.744Z,11.95
2022-12-25T15:01:24.796Z,11.94
2022-12-25T15:04:08.816Z,11.96
2022-12-25T15:06:43.159Z,12.00
2022-12-25T15:09:19.199Z,11.93
2022-12-25T15:11:55.568Z,11.89
2022-12-25T15:14:31.999Z,11.98
2022-12-25T15:17:05.472Z,12.00
2022-12-25T15:19:39.595Z,11.95
2022-12-25T15:22:14.442Z,11.92
2022-12-25T15:24:54.670Z,11.92
2022-12-25T15:27:48.842Z,11.95
2022-12-25T15:30:32.741Z,11.94
2022-12-25T15:33:08.865Z,11.97
2022-12-25T15:35:46.360Z,11.91
2022-12-25T15:38:38.987Z,11.93
2022-12-25T15:41:54.920Z,11.92
2022-12-25T15:44:37.305Z,11.89
2022-12-25T15:47:21.429Z,11.81
2022-12-25T15:50:01.143Z,11.86
2022-12-25T15:52:48.496Z,11.83
2022-12-25T15:55:31.648Z,11.80
2022-12-25T15:58:10.674Z,11.81
2022-12-25T16:00:47.870Z,11.83
2022-12-25T16:03:23.026Z,11.82
2022-12-25T16:05:56.792Z,11.92
2022-12-25T16:08:32.582Z,11.86
2022-12-25T16:11:16.288Z,11.89
2022-12-25T16:13:49.835Z,11.83
2022-12-25T16:16:33.474Z,11.79
2022-12-25T16:19:11.632Z,11.79
2022-12-25T16:21:52.639Z,11.79
2022-12-25T16:24:27.310Z,11.78
2022-12-25T16:27:01.057Z,11.78
2022-12-25T16:29:37.850Z,11.78
2022-12-25T16:32:13.193Z,11.78
2022-12-25T16:34:50.528Z,11.81
2022-12-25T16:37:27.374Z,11.77
2022-12-25T16:40:01.152Z,11.77
2022-12-25T16:42:42.388Z,11.77
2022-12-25T16:45:22.027Z,11.78
2022-12-25T16:48:03.479Z,11.83
2022-12-25T16:50:47.651Z,11.82
2022-12-25T16:53:23.238Z,11.79
2022-12-25T16:56:06.408Z,11.75
2022-12-25T16:58:39.406Z,11.78
2022-12-25T17:01:14.523Z,11.73
2022-12-25T17:03:48.216Z,11.74
2022-12-25T17:06:24.314Z,11.76
2022-12-25T17:08:58.540Z,11.75
2022-12-25T17:11:32.651Z,11.74
2022-12-25T17:14:09.039Z,11.71
2022-12-25T17:16:42.322Z,11.75
2022-12-25T17:19:22.231Z,11.77
2022-12-25T17:21:57.440Z,11.79
2022-12-25T17:24:30.467Z,11.71
2022-12-25T17:27:08.570Z,11.71
2022-12-25T17:29:42.703Z,11.73
2022-12-25T17:32:16.111Z,11.80
2022-12-25T17:34:49.121Z,11.78
2022-12-25T17:37:24.960Z,11.78
2022-12-25T17:39:57.987Z,11.74
2022-12-25T17:42:30.948Z,11.75
2022-12-25T17:45:04.288Z,11.76
2022-12-25T17:47:37.348Z,11.76
2022-12-25T17:50:10.135Z,11.72
2022-12-25T17:52:44.361Z,11.77
2022-12-25T17:55:17.522Z,11.77
2022-12-25T17:57:51.122Z,11.76
2022-12-25T18:00:24.065Z,11.73
2022-12-25T18:02:58.163Z,11.52
2022-12-25T18:05:31.231Z,11.56
2022-12-25T18:08:05.535Z,11.65
2022-12-25T18:10:42.344Z,11.57
2022-12-25T18:13:15.458Z,11.54
2022-12-25T18:15:48.573Z,11.53
2022-12-25T18:18:21.424Z,11.62
2022-12-25T18:20:55.101Z,11.58
2022-12-25T18:23:29.892Z,11.60
2022-12-25T18:26:03.600Z,11.69
2022-12-25T18:28:36.827Z,11.81
2022-12-25T18:31:10.472Z,11.78
2022-12-25T18:33:44.576Z,11.65
2022-12-25T18:36:22.583Z,11.77
2022-12-25T18:38:57.972Z,11.69
2022-12-25T18:41:31.210Z,11.72
2022-12-25T18:44:04.794Z,11.79
2022-12-25T18:46:38.063Z,11.72
2022-12-25T18:49:11.611Z,11.76
2022-12-25T18:51:44.463Z,11.78
2022-12-25T18:54:19.344Z,11.75
2022-12-25T18:56:53.647Z,11.75
2022-12-25T18:59:27.101Z,11.84
2022-12-25T19:02:00.427Z,11.82
2022-12-25T19:04:36.004Z,11.83
2022-12-25T19:07:09.242Z,11.83
2022-12-25T19:09:46.514Z,11.78
2022-12-25T19:12:19.651Z,11.78
2022-12-25T19:14:52.996Z,11.85
2022-12-25T19:17:31.555Z,11.83
2022-12-25T19:20:06.957Z,11.81
2022-12-25T19:22:39.847Z,11.88
2022-12-25T19:25:14.348Z,11.89
2022-12-25T19:27:49.585Z,11.98
2022-12-25T19:30:22.471Z,11.93
2022-12-25T19:32:55.257Z,11.95
2022-12-25T19:35:30.295Z,11.91
2022-12-25T19:38:03.135Z,11.97
2022-12-25T19:40:39.480Z,11.92
2022-12-25T19:43:13.681Z,11.96
2022-12-25T19:45:46.442Z,11.95
2022-12-25T19:48:19.251Z,11.95
2022-12-25T19:50:54.940Z,11.97
2022-12-25T19:53:29.412Z,11.99
2022-12-25T19:56:04.224Z,11.97
2022-12-25T19:58:37.522Z,12.01
2022-12-25T20:01:14.675Z,11.96
2022-12-25T20:03:48.482Z,11.95
2022-12-25T20:06:24.998Z,11.93
2022-12-25T20:08:59.775Z,11.93
2022-12-25T20:11:35.698Z,11.87
2022-12-25T20:14:09.352Z,11.89
2022-12-25T20:16:42.474Z,11.85
2022-12-25T20:19:16.321Z,11.88
2022-12-25T20:21:49.356Z,11.88
2022-12-25T20:24:22.101Z,11.89
2022-12-25T20:26:59.246Z,11.89
2022-12-25T20:29:32.514Z,11.92
2022-12-25T20:32:05.999Z,11.89
2022-12-25T20:34:39.134Z,11.88
2022-12-25T20:37:12.101Z,11.87
2022-12-25T20:39:48.141Z,11.83
2022-12-25T20:42:22.984Z,11.92
2022-12-25T20:44:57.229Z,11.87
2022-12-25T20:47:30.332Z,11.88
2022-12-25T20:50:03.652Z,11.85
2022-12-25T20:52:37.046Z,11.93
2022-12-25T20:55:10.295Z,11.87
2022-12-25T20:57:44.751Z,11.78
2022-12-25T21:00:17.837Z,11.78
2022-12-25T21:02:51.268Z,11.79
2022-12-25T21:05:24.834Z,11.76
2022-12-25T21:07:58.334Z,11.72
2022-12-25T21:10:31.487Z,11.73
2022-12-25T21:13:06.105Z,11.72
2022-12-25T21:15:45.236Z,11.75
2022-12-25T21:18:20.480Z,11.76
2022-12-25T21:20:55.920Z,11.85
2022-12-25T21:23:33.221Z,11.91
2022-12-25T21:26:15.181Z,11.92
2022-12-25T21:28:51.609Z,11.87
2022-12-25T21:31:28.588Z,11.83
2022-12-25T21:34:01.289Z,11.83
2022-12-25T21:36:35.957Z,11.87
2022-12-25T21:39:09.757Z,11.86
2022-12-25T21:41:43.663Z,11.85
2022-12-25T21:44:18.948Z,11.82
2022-12-25T21:46:52.432Z,11.82
2022-12-25T21:49:43.603Z,11.89
2022-12-25T21:52:16.931Z,11.83
2022-12-25T21:54:52.944Z,11.83
2022-12-25T21:57:26.363Z,11.91
2022-12-25T22:00:01.410Z,11.97
2022-12-25T22:02:35.038Z,11.97
2022-12-25T22:05:09.513Z,11.91
2022-12-25T22:07:43.129Z,11.92
2022-12-25T22:10:18.344Z,11.88
2022-12-25T22:13:09.296Z,11.94
2022-12-25T22:16:02.654Z,11.91
2022-12-25T22:19:05.301Z,11.86
2022-12-25T22:21:44.008Z,11.91
2022-12-25T22:24:17.575Z,11.87
2022-12-25T22:26:53.049Z,11.80
2022-12-25T22:29:26.400Z,11.81
2022-12-25T22:32:01.635Z,11.89
2022-12-25T22:34:35.163Z,11.85
2022-12-25T22:37:10.180Z,11.89
2022-12-25T22:39:43.432Z,11.86
2022-12-25T22:42:18.881Z,11.87
2022-12-25T22:44:54.430Z,11.91
2022-12-25T22:47:34.898Z,11.95
2022-12-25T22:50:12.523Z,11.88
2022-12-25T22:52:47.398Z,11.93
2022-12-25T22:55:21.865Z,11.88
2022-12-25T22:57:55.997Z,11.84
2022-12-25T23:00:29.458Z,11.84
2022-12-25T23:03:04.224Z,11.88
2022-12-25T23:05:37.698Z,11.84
2022-12-25T23:08:11.005Z,11.81
2022-12-25T23:10:43.929Z,11.83
2022-12-25T23:13:33.918Z,11.85
2022-12-25T23:16:07.158Z,11.86
2022-12-25T23:18:59.011Z,11.89
2022-12-25T23:21:49.998Z,11.87
2022-12-25T23:24:40.274Z,11.85
2022-12-25T23:27:13.991Z,11.78
2022-12-25T23:29:48.930Z,11.83
2022-12-25T23:32:25.326Z,11.79
2022-12-25T23:34:59.926Z,11.82
2022-12-25T23:37:37.510Z,11.81
2022-12-25T23:40:11.837Z,11.79
2022-12-25T23:42:46.210Z,11.83
2022-12-25T23:45:21.561Z,11.79
2022-12-25T23:47:54.416Z,11.84
2022-12-25T23:50:28.744Z,11.85
2022-12-25T23:53:01.927Z,11.78
2022-12-25T23:55:43.014Z,11.80
2022-12-25T23:58:18.698Z,11.79
